Terminal Aerodrome Forecast
Issued by NWS

Home | Current Version | Previous Version | Text Only | Print | Product List | Glossary On
Versions: 1 2 3 4 5 6 7 8 9 10 11 12 13 14 15 16
000
FTAK31 PAJN 300500
TAFAYA
TAF
PAYA 300521Z 3006/3106 08003KT P6SM -SHSNRA SCT020 BKN050
     FM301000 09003KT P6SM VCSH BKN050 OVC070
     FM301800 07003KT P6SM SCT120
      AMD LTD TO CLD VIS AND WIND 3006/3010=

USA.gov is the U.S. government's official web portal to all federal, state and local government web resources and services.